Time;durP1;ratioP1;P1;durP2;ratioP2;P2;SDS_P1;SDS_P2;PMS_P1;PMS_P2;Temp;Humidity;BMP_temperature;BMP_pressure;BME280_temperature;BME280_humidity;BME280_pressure;Samples;Min_cycle;Max_cycle;Signal;HPM_P1;HPM_P2
2022/08/08 00:00:13;;;;;;;5.67;4.53;;;15.10;99.90;;;;;;5064513;28;20180;-82
2022/08/08 00:02:45;;;;;;;7.23;4.43;;;15.20;99.90;;;;;;5063412;28;20359;-82
2022/08/08 00:05:35;;;;;;;4.77;4.33;;;15.00;99.90;;;;;;5064495;28;20571;-82
2022/08/08 00:08:25;;;;;;;7.00;4.40;;;15.20;99.90;;;;;;5062796;28;20205;-82
2022/08/08 00:11:10;;;;;;;6.17;4.80;;;15.30;99.90;;;;;;5064331;28;20178;-82
2022/08/08 00:13:45;;;;;;;5.17;4.67;;;15.30;99.90;;;;;;5065096;28;20204;-83
2022/08/08 00:16:18;;;;;;;4.30;4.00;;;15.30;99.90;;;;;;5063618;28;20203;-83
2022/08/08 00:19:19;;;;;;;5.33;4.20;;;15.20;99.90;;;;;;5067453;28;20169;-81
2022/08/08 00:21:54;;;;;;;4.97;4.57;;;15.30;99.90;;;;;;5063082;28;20181;-82
2022/08/08 00:24:27;;;;;;;6.90;4.60;;;15.20;99.90;;;;;;5062070;28;20177;-82
2022/08/08 00:26:56;;;;;;;4.60;4.10;;;15.20;99.90;;;;;;5063794;28;20176;-82
2022/08/08 00:29:24;;;;;;;6.17;3.97;;;15.20;99.90;;;;;;5062574;28;20261;-82
2022/08/08 00:31:56;;;;;;;5.83;4.43;;;15.20;99.90;;;;;;5064972;28;20169;-83
2022/08/08 00:38:12;;;;;;;4.60;3.93;;;15.00;99.90;;;;;;5063124;28;20161;-82
2022/08/08 00:40:38;;;;;;;4.90;4.40;;;15.00;99.90;;;;;;5063041;28;20169;-83
2022/08/08 00:43:41;;;;;;;5.10;4.60;;;15.00;99.90;;;;;;5062579;28;20184;-82
2022/08/08 00:46:19;;;;;;;4.67;3.97;;;14.90;99.90;;;;;;5066292;28;20187;-81
2022/08/08 00:49:15;;;;;;;5.37;4.37;;;14.90;99.90;;;;;;5062030;28;20193;-83
2022/08/08 00:52:05;;;;;;;4.70;4.20;;;14.80;99.90;;;;;;5066659;28;20165;-81
2022/08/08 00:54:50;;;;;;;4.37;3.97;;;14.80;99.90;;;;;;5067727;28;20209;-83
2022/08/08 00:58:07;;;;;;;4.57;4.17;;;14.80;99.90;;;;;;5062228;28;20205;-83
2022/08/08 01:01:00;;;;;;;5.73;4.37;;;14.70;99.90;;;;;;5063680;28;20177;-82
2022/08/08 01:03:48;;;;;;;5.47;4.10;;;14.70;99.90;;;;;;5063962;28;20177;-83
2022/08/08 01:06:39;;;;;;;4.73;4.17;;;14.70;99.90;;;;;;5062317;28;20170;-83
2022/08/08 01:09:22;;;;;;;4.30;3.90;;;14.60;99.90;;;;;;5063173;28;20216;-83
2022/08/08 01:12:06;;;;;;;5.07;4.43;;;14.60;99.90;;;;;;5064857;28;20158;-83
2022/08/08 01:14:38;;;;;;;6.97;4.50;;;14.50;99.90;;;;;;5076193;28;20173;-82
2022/08/08 01:17:18;;;;;;;5.27;4.77;;;14.50;99.90;;;;;;5078310;28;20180;-80
2022/08/08 01:20:18;;;;;;;6.20;5.13;;;14.50;99.90;;;;;;5077846;28;20169;-81
2022/08/08 01:23:03;;;;;;;4.60;4.20;;;14.40;99.90;;;;;;5078431;28;20201;-82
2022/08/08 01:25:44;;;;;;;5.20;4.70;;;14.40;99.90;;;;;;5079374;28;20199;-83
2022/08/08 01:28:28;;;;;;;4.73;4.33;;;14.30;99.90;;;;;;5070902;28;20740;-82
2022/08/08 01:31:14;;;;;;;5.17;4.77;;;14.30;99.90;;;;;;5065958;28;20193;-81
2022/08/08 01:34:14;;;;;;;5.27;4.77;;;14.30;99.90;;;;;;5070394;28;20201;-82
2022/08/08 01:37:15;;;;;;;6.07;4.30;;;14.20;99.90;;;;;;5074542;28;20177;-82
2022/08/08 01:40:08;;;;;;;5.40;4.90;;;14.20;99.90;;;;;;5065915;28;20219;-82
2022/08/08 01:42:52;;;;;;;5.47;4.57;;;14.10;99.90;;;;;;5062966;28;20185;-82
2022/08/08 01:45:30;;;;;;;5.90;5.30;;;14.10;99.90;;;;;;5062865;28;20181;-82
2022/08/08 01:48:12;;;;;;;7.10;4.60;;;14.10;99.90;;;;;;5062306;28;20543;-82
2022/08/08 01:50:59;;;;;;;5.33;4.83;;;14.10;99.90;;;;;;5063316;28;20265;-83
2022/08/08 01:53:41;;;;;;;6.57;4.57;;;14.10;99.90;;;;;;5065361;28;20577;-82
2022/08/08 01:56:17;;;;;;;5.10;4.60;;;14.10;99.90;;;;;;5063964;28;20694;-82
2022/08/08 01:58:52;;;;;;;5.13;4.53;;;14.00;99.90;;;;;;5064091;28;20223;-82
2022/08/08 02:01:35;;;;;;;5.90;4.23;;;13.90;99.90;;;;;;5062139;28;20187;-82
2022/08/08 02:04:03;;;;;;;5.30;4.80;;;13.70;99.90;;;;;;5062818;28;20200;-83
2022/08/08 02:07:03;;;;;;;5.53;5.03;;;13.90;99.90;;;;;;5063617;28;20220;-82
2022/08/08 02:09:40;;;;;;;7.17;4.87;;;13.80;99.90;;;;;;5062923;28;20685;-82
2022/08/08 02:12:13;;;;;;;5.03;4.53;;;13.80;99.90;;;;;;5063840;28;20160;-82
2022/08/08 02:14:47;;;;;;;5.57;4.80;;;13.80;99.90;;;;;;5064774;28;20162;-82
2022/08/08 02:17:52;;;;;;;6.27;4.80;;;13.70;99.90;;;;;;5064169;28;20158;-82
2022/08/08 02:20:21;;;;;;;6.07;5.47;;;13.80;99.90;;;;;;5064001;28;20181;-82
2022/08/08 02:23:02;;;;;;;5.63;5.10;;;13.60;99.90;;;;;;5063124;28;20177;-83
2022/08/08 02:25:47;;;;;;;6.23;5.53;;;13.60;99.90;;;;;;5063483;28;20539;-82
2022/08/08 02:28:20;;;;;;;5.47;4.97;;;13.70;99.90;;;;;;5065518;28;20185;-80
2022/08/08 02:30:52;;;;;;;6.77;5.70;;;13.60;99.90;;;;;;5067946;28;20217;-82
2022/08/08 02:33:49;;;;;;;5.57;4.70;;;13.50;99.90;;;;;;5063060;28;20182;-82
2022/08/08 02:36:50;;;;;;;6.03;5.53;;;13.50;99.90;;;;;;5064516;28;20248;-82
2022/08/08 02:39:15;;;;;;;7.13;5.27;;;13.40;99.90;;;;;;5056843;28;20210;-82
2022/08/08 02:42:03;;;;;;;7.70;5.53;;;13.40;99.90;;;;;;5063974;28;20174;-81
2022/08/08 02:44:43;;;;;;;8.17;5.63;;;13.50;99.90;;;;;;5064694;28;20172;-82
2022/08/08 02:47:23;;;;;;;7.67;6.07;;;13.60;99.90;;;;;;5063379;28;20191;-82
2022/08/08 02:50:27;;;;;;;10.63;5.93;;;13.30;99.90;;;;;;5063803;28;20205;-82
2022/08/08 02:53:14;;;;;;;6.70;5.50;;;13.30;99.90;;;;;;5064245;28;20181;-82
2022/08/08 02:55:49;;;;;;;6.57;5.87;;;13.20;99.90;;;;;;5066034;28;20221;-83
2022/08/08 02:58:20;;;;;;;7.30;5.90;;;13.10;99.90;;;;;;5064515;28;20224;-83
2022/08/08 03:01:30;;;;;;;7.60;6.37;;;13.10;99.90;;;;;;5066626;28;20177;-83
2022/08/08 03:04:01;;;;;;;7.57;6.43;;;13.30;99.90;;;;;;5047603;28;20195;-82
2022/08/08 03:06:29;;;;;;;8.97;6.63;;;12.80;99.90;;;;;;5042891;28;20199;-82
2022/08/08 03:09:33;;;;;;;7.10;6.40;;;13.00;99.90;;;;;;5061006;28;20231;-82
2022/08/08 03:12:20;;;;;;;8.63;6.53;;;13.00;99.90;;;;;;5060828;28;20223;-82
2022/08/08 03:14:54;;;;;;;7.70;6.97;;;13.10;99.90;;;;;;5062598;28;20166;-82
2022/08/08 03:17:30;;;;;;;9.23;6.77;;;12.90;99.90;;;;;;5061422;28;20489;-82
2022/08/08 03:20:10;;;;;;;8.67;7.70;;;12.70;99.90;;;;;;5061854;28;20186;-83
2022/08/08 03:22:53;;;;;;;12.97;8.50;;;13.00;99.90;;;;;;5061625;28;20181;-82
2022/08/08 03:25:26;;;;;;;8.93;7.10;;;13.00;99.90;;;;;;5062011;28;20185;-82
2022/08/08 03:27:59;;;;;;;8.77;7.33;;;12.90;99.90;;;;;;5062480;28;20722;-82
2022/08/08 03:30:25;;;;;;;9.40;7.40;;;12.90;99.90;;;;;;5060596;28;20202;-82
2022/08/08 03:35:39;;;;;;;8.17;7.37;;;12.90;99.90;;;;;;5063840;28;20192;-82
2022/08/08 03:38:06;;;;;;;10.20;7.60;;;12.80;99.90;;;;;;5062110;28;20193;-82
2022/08/08 03:40:31;;;;;;;8.47;7.53;;;12.80;99.90;;;;;;5063490;28;20178;-81
2022/08/08 03:42:58;;;;;;;8.27;7.43;;;12.80;99.90;;;;;;5065035;28;20203;-83
2022/08/08 03:45:26;;;;;;;8.10;7.30;;;12.80;99.90;;;;;;5070592;28;20184;-83
2022/08/08 03:48:01;;;;;;;8.13;7.33;;;12.80;99.90;;;;;;5069861;28;20242;-83
2022/08/08 03:50:28;;;;;;;10.80;7.80;;;12.70;99.90;;;;;;5060374;28;20196;-83
2022/08/08 03:52:53;;;;;;;9.63;8.17;;;12.70;99.90;;;;;;5063664;28;20196;-83
2022/08/08 03:55:21;;;;;;;8.57;7.67;;;12.70;99.90;;;;;;5062551;28;20630;-83
2022/08/08 03:57:50;;;;;;;9.70;8.50;;;12.70;99.90;;;;;;5062374;28;20247;-82
2022/08/08 04:00:19;;;;;;;9.67;8.67;;;12.70;99.90;;;;;;5065388;28;20203;-82
2022/08/08 04:03:08;;;;;;;10.13;8.87;;;12.70;99.90;;;;;;5065098;28;20173;-82
2022/08/08 04:05:36;;;;;;;10.60;9.23;;;12.70;99.90;;;;;;5061369;28;20174;-82
2022/08/08 04:08:05;;;;;;;11.40;10.20;;;12.70;99.90;;;;;;5065112;28;20193;-82
2022/08/08 04:10:32;;;;;;;10.67;8.93;;;12.70;99.90;;;;;;5060725;28;20243;-82
2022/08/08 04:12:58;;;;;;;9.30;8.23;;;12.70;99.90;;;;;;5060979;28;20197;-82
2022/08/08 04:15:23;;;;;;;10.13;8.83;;;12.70;99.90;;;;;;5060588;28;20176;-82
2022/08/08 04:17:49;;;;;;;14.30;8.37;;;12.70;99.90;;;;;;5062179;28;20304;-82
2022/08/08 04:20:15;;;;;;;10.40;8.27;;;12.70;99.90;;;;;;5060513;28;20659;-82
2022/08/08 04:22:42;;;;;;;9.37;8.07;;;12.70;99.90;;;;;;5062311;28;20270;-82
2022/08/08 04:25:08;;;;;;;9.20;7.83;;;12.70;99.90;;;;;;5061273;28;20188;-82
2022/08/08 04:27:35;;;;;;;10.90;8.40;;;12.80;99.90;;;;;;5061245;28;20267;-81
2022/08/08 04:30:03;;;;;;;8.90;8.10;;;12.80;99.90;;;;;;5061055;28;20216;-81
2022/08/08 04:32:29;;;;;;;8.30;7.47;;;12.80;99.90;;;;;;5062551;28;20223;-81
2022/08/08 04:34:54;;;;;;;8.53;7.73;;;12.80;99.90;;;;;;5062733;28;20174;-82
2022/08/08 04:37:20;;;;;;;9.67;8.37;;;12.70;99.90;;;;;;5061657;28;20187;-82
2022/08/08 04:39:46;;;;;;;8.90;8.00;;;12.70;99.90;;;;;;5061592;28;20184;-81
2022/08/08 04:42:12;;;;;;;10.00;8.27;;;12.70;99.90;;;;;;5061415;28;20584;-80
2022/08/08 04:44:38;;;;;;;9.53;8.63;;;12.70;99.90;;;;;;5062021;28;20635;-82
2022/08/08 04:47:04;;;;;;;8.33;7.53;;;12.70;99.90;;;;;;5061199;28;20177;-81
2022/08/08 04:49:29;;;;;;;10.47;8.53;;;12.70;99.90;;;;;;5060704;28;20208;-81
2022/08/08 04:51:56;;;;;;;8.47;7.67;;;12.70;99.90;;;;;;5057866;28;20178;-80
2022/08/08 04:54:21;;;;;;;8.93;8.03;;;12.80;99.90;;;;;;5061504;28;20180;-81
2022/08/08 04:56:47;;;;;;;11.03;8.33;;;12.80;99.90;;;;;;5059769;28;20173;-82
2022/08/08 04:59:13;;;;;;;10.97;8.23;;;12.80;99.90;;;;;;5060163;28;20195;-81
2022/08/08 05:01:39;;;;;;;9.80;7.90;;;12.90;99.90;;;;;;5058532;28;20276;-81
2022/08/08 05:04:05;;;;;;;9.17;8.27;;;;;;;;;;5058137;28;20240;-82
2022/08/08 05:06:30;;;;;;;8.53;7.73;;;13.00;99.90;;;;;;5060843;28;20180;-81
2022/08/08 05:08:57;;;;;;;8.77;7.87;;;;;;;;;;5058527;28;20274;-81
2022/08/08 05:11:27;;;;;;;9.37;8.40;;;13.10;99.90;;;;;;5058804;28;20289;-81
2022/08/08 05:13:52;;;;;;;9.03;7.73;;;12.90;99.90;;;;;;5059643;28;20209;-81
2022/08/08 05:16:18;;;;;;;9.43;7.50;;;13.40;99.90;;;;;;5060706;28;20184;-82
2022/08/08 05:18:44;;;;;;;11.37;8.50;;;;;;;;;;5059646;28;20197;-82
2022/08/08 05:21:10;;;;;;;10.27;7.77;;;13.20;99.90;;;;;;5061393;28;20654;-82
2022/08/08 05:23:36;;;;;;;7.77;6.97;;;;;;;;;;5060602;28;20181;-84
2022/08/08 05:26:03;;;;;;;8.73;7.30;;;13.50;99.90;;;;;;5061205;28;20177;-82
2022/08/08 05:28:29;;;;;;;7.77;6.07;;;;;;;;;;5059803;28;20679;-83
2022/08/08 05:30:55;;;;;;;8.30;6.20;;;13.60;99.90;;;;;;5060102;28;20197;-81
2022/08/08 05:33:23;;;;;;;7.47;5.77;;;13.50;99.90;;;;;;5060764;28;20690;-81
2022/08/08 05:35:53;;;;;;;6.53;5.73;;;13.70;99.90;;;;;;5057276;28;20221;-80
2022/08/08 05:38:20;;;;;;;5.23;4.77;;;13.80;99.90;;;;;;5056274;28;20197;-80
2022/08/08 05:40:48;;;;;;;6.93;4.63;;;13.90;99.90;;;;;;5057959;28;20177;-83
2022/08/08 05:43:31;;;;;;;7.33;5.00;;;14.10;99.90;;;;;;5070171;28;20177;-82
2022/08/08 05:46:00;;;;;;;4.43;4.03;;;14.10;99.90;;;;;;5092662;28;20181;-82
2022/08/08 05:48:25;;;;;;;9.53;4.40;;;14.20;99.90;;;;;;5068686;28;20202;-82
2022/08/08 05:50:51;;;;;;;6.13;4.40;;;14.40;99.90;;;;;;5059595;28;20300;-82
2022/08/08 05:53:24;;;;;;;4.37;3.97;;;14.50;99.90;;;;;;5060881;28;20177;-83
2022/08/08 05:55:55;;;;;;;5.77;4.33;;;14.60;99.90;;;;;;5068619;28;20249;-82
2022/08/08 05:58:31;;;;;;;5.10;3.93;;;14.70;99.90;;;;;;5082660;28;20201;-83
2022/08/08 06:01:01;;;;;;;3.93;3.50;;;14.70;99.90;;;;;;5075378;28;20246;-82
2022/08/08 06:03:28;;;;;;;4.83;4.00;;;14.80;99.90;;;;;;5077274;28;20255;-81
2022/08/08 06:06:06;;;;;;;4.23;3.83;;;14.80;99.90;;;;;;5076587;28;20582;-82
2022/08/08 06:08:50;;;;;;;4.40;3.30;;;15.00;99.90;;;;;;5075506;28;20219;-82
2022/08/08 06:11:16;;;;;;;7.13;4.30;;;15.00;99.90;;;;;;5075316;28;20211;-82
2022/08/08 06:13:43;;;;;;;4.27;3.87;;;15.10;99.90;;;;;;5080491;28;20230;-83
2022/08/08 06:16:11;;;;;;;3.60;3.30;;;15.20;99.90;;;;;;5081138;28;20196;-82
2022/08/08 06:18:39;;;;;;;4.83;3.60;;;15.20;99.90;;;;;;5085056;28;20291;-82
2022/08/08 06:21:07;;;;;;;5.23;3.87;;;15.20;99.90;;;;;;5079304;28;20268;-81
2022/08/08 06:23:33;;;;;;;4.30;3.67;;;;;;;;;;5081394;28;20181;-81
2022/08/08 06:26:04;;;;;;;4.67;4.10;;;15.40;99.90;;;;;;5082100;28;20181;-81
2022/08/08 06:28:36;;;;;;;5.23;3.73;;;15.40;99.90;;;;;;5081397;28;20279;-81
2022/08/08 06:31:05;;;;;;;4.23;3.83;;;15.50;99.90;;;;;;5080703;28;20204;-82
2022/08/08 06:33:50;;;;;;;5.67;4.40;;;15.60;99.90;;;;;;5080927;28;20177;-82
2022/08/08 06:36:36;;;;;;;4.70;4.30;;;15.70;99.90;;;;;;5081456;28;20184;-81
2022/08/08 06:39:03;;;;;;;6.67;4.37;;;15.70;99.90;;;;;;5081714;28;20227;-81
2022/08/08 06:41:32;;;;;;;4.40;4.00;;;15.80;99.90;;;;;;5081451;28;20173;-81
2022/08/08 06:44:03;;;;;;;4.40;3.83;;;15.90;99.90;;;;;;5081027;28;20199;-81
2022/08/08 06:46:29;;;;;;;4.33;3.70;;;16.00;99.90;;;;;;5081595;28;20612;-82
2022/08/08 06:48:56;;;;;;;3.63;3.33;;;16.10;99.90;;;;;;5081432;28;20196;-81
2022/08/08 06:51:22;;;;;;;5.37;3.40;;;16.10;99.90;;;;;;5080823;28;20240;-80
2022/08/08 06:53:49;;;;;;;3.47;3.03;;;16.20;99.90;;;;;;5081974;28;20184;-81
2022/08/08 06:56:14;;;;;;;3.37;3.07;;;16.30;99.90;;;;;;5080285;28;20519;-80
2022/08/08 06:58:40;;;;;;;6.53;3.03;;;16.50;99.90;;;;;;5081156;28;20200;-80
2022/08/08 07:01:12;;;;;;;4.77;2.87;;;16.60;99.90;;;;;;5079768;28;20180;-80
2022/08/08 07:04:01;;;;;;;3.30;2.80;;;16.70;99.90;;;;;;5078785;28;20362;-80
2022/08/08 07:06:30;;;;;;;3.97;2.63;;;16.80;99.90;;;;;;5080616;28;20165;-79
2022/08/08 07:09:02;;;;;;;4.20;2.40;;;17.00;99.90;;;;;;5081527;28;20212;-80
2022/08/08 07:11:29;;;;;;;4.53;2.23;;;17.10;99.90;;;;;;5079435;28;20619;-80
2022/08/08 07:14:00;;;;;;;3.50;2.57;;;17.20;99.90;;;;;;5080667;28;20169;-81
2022/08/08 07:16:53;;;;;;;2.67;2.30;;;17.30;99.90;;;;;;5081905;28;20230;-80
2022/08/08 07:19:43;;;;;;;2.77;2.30;;;17.50;99.90;;;;;;5078721;28;20258;-81
2022/08/08 07:22:09;;;;;;;3.17;2.30;;;17.70;99.90;;;;;;5078891;28;20179;-81
2022/08/08 07:24:54;;;;;;;5.43;2.57;;;17.70;99.90;;;;;;5066489;28;20173;-81
2022/08/08 07:27:25;;;;;;;3.03;2.53;;;17.90;99.90;;;;;;5066840;28;20166;-80
2022/08/08 07:29:51;;;;;;;3.23;2.40;;;18.00;99.90;;;;;;5062000;28;20295;-81
2022/08/08 07:32:17;;;;;;;2.70;2.50;;;18.10;99.90;;;;;;5061494;28;20205;-81
2022/08/08 07:34:44;;;;;;;3.20;2.90;;;18.20;99.90;;;;;;5079782;28;20212;-81
2022/08/08 07:37:12;;;;;;;5.83;3.43;;;18.40;99.90;;;;;;5078126;28;20207;-80
2022/08/08 07:39:41;;;;;;;3.27;2.87;;;18.50;99.90;;;;;;5081106;28;20643;-81
2022/08/08 07:42:12;;;;;;;3.00;2.70;;;18.60;99.90;;;;;;5077579;28;20165;-81
2022/08/08 07:44:40;;;;;;;2.23;2.00;;;18.70;99.90;;;;;;5064318;28;20261;-81
2022/08/08 07:47:05;;;;;;;4.93;2.83;;;18.80;99.90;;;;;;5080113;28;20169;-81
2022/08/08 07:49:31;;;;;;;4.53;2.73;;;18.90;99.90;;;;;;5079158;28;20236;-82
2022/08/08 07:51:58;;;;;;;2.40;2.20;;;19.00;99.90;;;;;;5079605;28;20222;-81
2022/08/08 07:54:31;;;;;;;2.47;2.27;;;19.10;99.90;;;;;;5059119;28;20286;-80
2022/08/08 07:57:21;;;;;;;4.23;2.63;;;19.20;99.90;;;;;;5065116;28;20725;-80
2022/08/08 08:00:04;;;;;;;2.40;2.20;;;19.30;99.90;;;;;;5076339;28;20197;-79
2022/08/08 08:02:46;;;;;;;3.17;2.27;;;19.40;99.90;;;;;;5063313;28;20178;-79
2022/08/08 08:05:22;;;;;;;4.43;2.30;;;19.50;99.90;;;;;;5073695;28;20241;-79
2022/08/08 08:07:52;;;;;;;4.57;2.10;;;19.60;99.90;;;;;;5066401;28;20190;-79
2022/08/08 08:10:19;;;;;;;3.50;2.10;;;19.70;99.90;;;;;;5056861;28;20228;-79
2022/08/08 08:12:53;;;;;;;3.40;2.10;;;19.80;99.90;;;;;;5067565;28;20177;-79
2022/08/08 08:15:25;;;;;;;2.37;2.17;;;19.80;99.90;;;;;;5061743;28;20184;-79
2022/08/08 08:17:56;;;;;;;6.50;2.00;;;20.00;99.90;;;;;;5078560;28;20166;-79
2022/08/08 08:20:27;;;;;;;2.97;2.00;;;20.10;99.90;;;;;;5071999;28;20232;-79
2022/08/08 08:22:53;;;;;;;5.73;2.30;;;20.40;99.90;;;;;;5058290;28;20195;-82
2022/08/08 08:25:19;;;;;;;2.50;2.13;;;20.60;99.90;;;;;;5059036;28;20183;-82
2022/08/08 08:27:45;;;;;;;2.37;2.17;;;20.80;99.90;;;;;;5059890;28;20182;-79
2022/08/08 08:30:11;;;;;;;2.90;2.00;;;21.00;99.90;;;;;;5073545;28;20286;-79
2022/08/08 08:32:37;;;;;;;2.97;2.00;;;21.20;99.90;;;;;;5058452;28;20183;-80
2022/08/08 08:35:03;;;;;;;3.07;2.10;;;21.30;99.90;;;;;;5071801;28;20175;-79
2022/08/08 08:37:29;;;;;;;3.97;2.03;;;21.50;99.90;;;;;;5062976;28;20257;-80
2022/08/08 08:39:55;;;;;;;2.30;2.10;;;21.70;99.90;;;;;;5060722;28;20197;-80
2022/08/08 08:42:23;;;;;;;3.03;2.37;;;21.70;99.90;;;;;;5060645;28;20192;-79
2022/08/08 08:44:50;;;;;;;2.33;1.97;;;21.80;99.90;;;;;;5060232;28;20287;-79
2022/08/08 08:47:17;;;;;;;5.20;1.80;;;21.80;99.90;;;;;;5059861;28;20541;-79
2022/08/08 08:49:43;;;;;;;2.43;1.67;;;21.90;99.90;;;;;;5059349;28;20607;-78
2022/08/08 08:52:14;;;;;;;4.60;2.10;;;22.10;99.90;;;;;;5065522;28;20172;-79
2022/08/08 08:54:40;;;;;;;3.97;1.97;;;22.30;99.90;;;;;;5079578;28;20177;-80
2022/08/08 08:57:09;;;;;;;2.37;1.90;;;22.30;99.90;;;;;;5078891;28;20183;-79
2022/08/08 08:59:40;;;;;;;2.00;1.77;;;22.50;99.90;;;;;;5080782;28;20285;-79
2022/08/08 09:02:19;;;;;;;1.93;1.80;;;22.60;99.90;;;;;;5074958;28;20256;-78
2022/08/08 09:04:47;;;;;;;3.20;1.80;;;22.80;99.90;;;;;;5059417;28;20204;-79
2022/08/08 09:07:18;;;;;;;3.07;1.60;;;23.00;99.90;;;;;;5057807;28;20183;-81
2022/08/08 09:09:51;;;;;;;3.50;2.10;;;23.10;99.90;;;;;;5058482;28;20216;-78
2022/08/08 09:12:20;;;;;;;1.97;1.67;;;23.20;99.90;;;;;;5063507;28;20169;-81
2022/08/08 09:14:47;;;;;;;4.60;1.53;;;23.00;99.90;;;;;;5067529;28;20178;-79
2022/08/08 09:17:13;;;;;;;3.30;1.73;;;23.10;99.90;;;;;;5059095;28;20181;-79
2022/08/08 09:19:40;;;;;;;1.90;1.73;;;23.20;99.90;;;;;;5057658;28;20274;-78
2022/08/08 09:22:06;;;;;;;3.13;1.60;;;23.50;99.90;;;;;;5057901;28;20185;-79
2022/08/08 09:24:34;;;;;;;3.27;1.80;;;23.40;99.90;;;;;;5056645;28;20181;-78
2022/08/08 09:27:08;;;;;;;3.13;1.80;;;23.60;99.90;;;;;;5057073;28;20189;-80
2022/08/08 09:30:05;;;;;;;3.90;1.77;;;23.80;99.90;;;;;;5073684;28;20196;-79
2022/08/08 09:32:38;;;;;;;4.47;2.10;;;23.90;99.90;;;;;;5054932;28;20224;-79
2022/08/08 09:35:10;;;;;;;3.37;1.60;;;24.10;99.90;;;;;;5057915;28;20178;-78
2022/08/08 09:37:42;;;;;;;4.73;1.73;;;24.40;99.90;;;;;;5056039;28;20162;-79
2022/08/08 09:40:10;;;;;;;6.43;1.67;;;24.50;99.90;;;;;;5056105;28;20205;-79
2022/08/08 09:42:42;;;;;;;4.23;1.60;;;24.60;99.90;;;;;;5057099;28;20178;-79
2022/08/08 09:45:08;;;;;;;3.13;1.67;;;24.80;99.90;;;;;;5058436;28;20511;-81
2022/08/08 09:47:37;;;;;;;1.73;1.60;;;24.90;99.90;;;;;;5060592;28;20711;-80
2022/08/08 09:50:13;;;;;;;2.30;1.40;;;24.60;99.90;;;;;;5063264;28;20205;-80
2022/08/08 09:52:42;;;;;;;2.57;1.53;;;24.60;99.90;;;;;;5073511;28;20174;-80
2022/08/08 09:55:09;;;;;;;3.20;1.47;;;24.80;99.90;;;;;;5081584;28;20246;-81
2022/08/08 09:57:40;;;;;;;3.00;1.40;;;25.00;99.90;;;;;;5065432;28;20179;-80
2022/08/08 10:00:11;;;;;;;4.60;1.77;;;25.20;99.90;;;;;;5084088;28;20201;-80
2022/08/08 10:02:43;;;;;;;1.83;1.50;;;24.70;99.90;;;;;;5074064;28;20182;-80
2022/08/08 10:05:18;;;;;;;2.53;1.70;;;24.60;99.90;;;;;;5078756;28;20185;-80
2022/08/08 10:07:49;;;;;;;3.83;1.67;;;24.80;99.90;;;;;;5084275;28;20166;-80
2022/08/08 10:10:39;;;;;;;3.63;1.50;;;24.80;99.90;;;;;;5083841;28;20223;-80
2022/08/08 10:13:15;;;;;;;2.70;1.40;;;25.20;99.90;;;;;;5070664;28;20179;-81
2022/08/08 10:15:46;;;;;;;1.80;1.30;;;25.50;99.90;;;;;;5083430;28;20591;-80
2022/08/08 10:18:12;;;;;;;1.93;1.50;;;25.60;99.90;;;;;;5077177;28;20196;-79
2022/08/08 10:20:47;;;;;;;2.40;1.57;;;25.70;99.90;;;;;;5073942;28;20239;-80
2022/08/08 10:23:17;;;;;;;3.63;1.80;;;25.70;99.90;;;;;;5085353;28;20182;-79
2022/08/08 10:25:44;;;;;;;6.70;1.77;;;26.00;99.90;;;;;;5081845;28;20179;-79
2022/08/08 10:28:20;;;;;;;3.93;1.33;;;25.60;99.90;;;;;;5062874;28;20209;-80
2022/08/08 10:30:58;;;;;;;2.83;1.60;;;25.50;99.90;;;;;;5063443;28;20537;-81
2022/08/08 10:33:32;;;;;;;3.00;1.60;;;25.20;99.90;;;;;;5062812;28;20246;-80
2022/08/08 10:36:03;;;;;;;2.23;1.77;;;25.40;99.90;;;;;;5062308;28;20267;-80
2022/08/08 10:38:31;;;;;;;4.43;1.53;;;26.10;99.90;;;;;;5071406;28;20195;-79
2022/08/08 10:41:01;;;;;;;2.37;1.30;;;26.70;99.90;;;;;;5072068;28;20186;-78
2022/08/08 10:43:37;;;;;;;1.63;1.40;;;27.20;99.90;;;;;;5063885;28;20212;-79
2022/08/08 10:46:03;;;;;;;3.23;1.50;;;27.40;99.90;;;;;;5051955;28;20314;-79
2022/08/08 10:48:33;;;;;;;1.73;1.57;;;27.50;99.90;;;;;;5074386;28;20296;-80
2022/08/08 10:50:58;;;;;;;2.63;1.57;;;26.80;99.90;;;;;;5074453;28;20201;-80
2022/08/08 10:53:35;;;;;;;2.23;1.63;;;26.80;99.90;;;;;;5064659;28;20185;-80
2022/08/08 10:56:00;;;;;;;2.90;1.80;;;26.90;99.90;;;;;;5042007;28;20171;-81
2022/08/08 10:58:27;;;;;;;1.60;1.50;;;27.10;99.90;;;;;;5059213;28;20265;-81
2022/08/08 11:00:55;;;;;;;3.07;1.60;;;27.20;99.90;;;;;;5083900;28;20169;-81
2022/08/08 11:03:20;;;;;;;5.30;1.80;;;27.20;99.90;;;;;;5084383;28;20524;-82
2022/08/08 11:05:47;;;;;;;2.57;1.93;;;27.40;99.90;;;;;;5064330;28;20177;-79
2022/08/08 11:08:22;;;;;;;5.57;2.00;;;27.50;99.90;;;;;;5069218;28;20185;-80
2022/08/08 11:10:48;;;;;;;1.70;1.60;;;27.90;99.90;;;;;;5090052;28;20192;-80
2022/08/08 11:13:22;;;;;;;3.30;1.70;;;27.90;99.90;;;;;;5078681;28;20189;-80
2022/08/08 11:15:48;;;;;;;2.47;1.60;;;27.90;99.90;;;;;;5079505;28;20184;-82
2022/08/08 11:18:15;;;;;;;2.00;1.80;;;28.30;99.90;;;;;;5089358;28;20196;-78
2022/08/08 11:20:41;;;;;;;2.17;1.70;;;28.30;99.90;;;;;;5085264;28;20185;-81
2022/08/08 11:23:08;;;;;;;4.07;1.63;;;28.10;99.90;;;;;;5086471;28;20169;-79
2022/08/08 11:25:34;;;;;;;2.57;1.50;;;28.00;99.90;;;;;;5089217;28;20185;-80
2022/08/08 11:28:03;;;;;;;2.40;1.70;;;28.00;99.90;;;;;;5090387;28;20211;-79
2022/08/08 11:30:31;;;;;;;4.70;1.70;;;28.00;99.90;;;;;;5074116;28;20200;-80
2022/08/08 11:33:01;;;;;;;2.20;2.00;;;28.20;99.90;;;;;;5059473;28;20180;-80
2022/08/08 11:35:27;;;;;;;2.03;1.83;;;28.50;99.90;;;;;;5060816;28;20166;-82
2022/08/08 11:37:53;;;;;;;2.10;1.67;;;28.80;99.90;;;;;;5040161;28;20178;-80
2022/08/08 11:40:20;;;;;;;2.60;1.63;;;28.80;99.90;;;;;;5040034;28;20232;-79
2022/08/08 11:42:46;;;;;;;3.27;1.90;;;29.00;99.90;;;;;;5040725;28;20297;-80
2022/08/08 11:45:12;;;;;;;3.77;1.77;;;29.00;99.90;;;;;;5069543;28;20178;-78
2022/08/08 11:47:39;;;;;;;4.50;1.87;;;28.70;99.80;;;;;;5080103;28;20176;-79
2022/08/08 11:50:10;;;;;;;3.67;2.00;;;28.30;99.90;;;;;;5080613;28;20224;-80
2022/08/08 11:52:37;;;;;;;2.00;1.63;;;28.50;99.90;;;;;;5071505;28;20170;-81
2022/08/08 11:55:26;;;;;;;3.40;1.90;;;28.90;99.90;;;;;;5060625;28;20171;-80
2022/08/08 11:58:08;;;;;;;1.60;1.50;;;29.30;99.90;;;;;;5079609;28;20180;-79
2022/08/08 12:00:46;;;;;;;1.73;1.63;;;29.30;99.90;;;;;;5079181;28;20178;-81
2022/08/08 12:03:18;;;;;;;2.27;1.97;;;29.20;99.50;;;;;;5066484;28;20277;-80
2022/08/08 12:05:45;;;;;;;3.93;2.10;;;29.30;99.90;;;;;;5080762;28;20236;-81
2022/08/08 12:08:12;;;;;;;12.83;2.10;;;29.40;99.90;;;;;;5074589;28;20667;-79
2022/08/08 12:10:49;;;;;;;2.20;1.97;;;29.50;99.90;;;;;;5058849;28;20203;-80
2022/08/08 12:13:22;;;;;;;3.27;1.63;;;29.80;99.90;;;;;;5060673;28;20174;-80
2022/08/08 12:15:48;;;;;;;1.67;1.57;;;29.80;98.90;;;;;;5062152;28;20174;-79
2022/08/08 12:18:17;;;;;;;3.10;1.77;;;29.70;98.40;;;;;;5081433;28;20190;-79
2022/08/08 12:20:43;;;;;;;3.33;1.60;;;29.70;99.90;;;;;;5081696;28;20228;-80
2022/08/08 12:23:09;;;;;;;3.03;1.73;;;29.80;99.90;;;;;;5074165;28;20187;-80
2022/08/08 12:25:36;;;;;;;2.40;1.87;;;29.80;99.90;;;;;;5059100;28;20190;-79
2022/08/08 12:28:13;;;;;;;2.10;1.90;;;29.60;99.90;;;;;;5068417;28;20521;-78
2022/08/08 12:30:43;;;;;;;2.13;1.60;;;29.60;98.60;;;;;;5064838;28;20244;-79
2022/08/08 12:33:25;;;;;;;2.43;1.73;;;29.60;97.50;;;;;;5074880;28;20176;-79
2022/08/08 12:35:52;;;;;;;2.40;1.60;;;29.60;97.90;;;;;;5079017;28;20210;-81
2022/08/08 12:38:18;;;;;;;4.07;2.57;;;30.00;96.80;;;;;;5079207;28;20230;-79
2022/08/08 12:40:47;;;;;;;2.83;1.97;;;29.80;97.00;;;;;;5069285;28;20201;-79
2022/08/08 12:43:14;;;;;;;3.80;2.00;;;29.80;95.70;;;;;;5058128;28;20186;-79
2022/08/08 12:45:42;;;;;;;2.10;1.90;;;29.90;97.00;;;;;;5075873;28;20181;-80
2022/08/08 12:48:19;;;;;;;2.63;1.67;;;29.80;94.70;;;;;;5057919;28;20193;-80
2022/08/08 12:50:48;;;;;;;2.27;1.67;;;29.80;96.70;;;;;;5059177;28;20158;-80
2022/08/08 12:53:21;;;;;;;1.77;1.60;;;29.80;97.00;;;;;;5072751;28;20186;-80
2022/08/08 12:55:53;;;;;;;1.83;1.60;;;29.80;96.90;;;;;;5058057;28;20192;-81
2022/08/08 12:58:19;;;;;;;1.60;1.50;;;29.80;96.40;;;;;;5059208;28;20194;-80
2022/08/08 13:00:45;;;;;;;3.20;1.70;;;29.90;97.20;;;;;;5058682;28;20202;-80
2022/08/08 13:03:25;;;;;;;2.47;1.43;;;29.90;97.20;;;;;;5058864;28;20180;-81
2022/08/08 13:06:11;;;;;;;1.53;1.43;;;30.10;98.60;;;;;;5062475;28;20169;-80
2022/08/08 13:08:43;;;;;;;1.60;1.50;;;30.10;94.50;;;;;;5080890;28;20201;-81
2022/08/08 13:11:37;;;;;;;3.70;1.70;;;30.20;97.80;;;;;;5079171;28;20170;-80
2022/08/08 13:14:11;;;;;;;2.43;2.00;;;30.30;94.50;;;;;;5078536;28;20211;-80
2022/08/08 13:16:38;;;;;;;2.67;1.70;;;30.40;97.30;;;;;;5079526;28;20184;-80
2022/08/08 13:19:06;;;;;;;1.97;1.67;;;30.70;94.70;;;;;;5078750;28;20279;-80
2022/08/08 13:21:39;;;;;;;2.27;1.50;;;30.70;95.00;;;;;;5080574;28;20175;-79
2022/08/08 13:24:06;;;;;;;2.07;1.40;;;30.70;92.90;;;;;;5079004;28;20173;-80